Iron Queen — MVNW9 — position and weather

sailwx.info

Track history (hours):
 
Tides and Currents Weather Stations Pressure Air Temp Water Temp Dewpoint Dewpoint Depression Visibility Wind Speed Wind Dir Waves Ship Positions

Iron Queen

Last reported at 2015-Jan-06 07:22 UTC. Time now 2015-Jan-26 22:28 UTC.
Position N 01°54' E 102°22'.
Warning: this ship's position is 20 days out of date.

Length 280 m; draft 17.2 m.

Type: Cargo ship. MMSI: 234112000.

Date/timePositionNaut miles runAvg speedWind from/ knotsBaromVisibWave heightAir tempDewpointWater temp
2015-Jan-06 07:22N 01°54' E 102°22'1410.7
2015-Jan-06 06:04N 01°48' E 102°34'610.3
2015-Jan-06 05:29N 01°45' E 102°40'76 9.3
2015-Jan-05 21:18N 01°11' E 103°48'911.8
2015-Jan-05 20:33N 01°14' E 103°56'2 1.6
2015-Jan-05 19:13N 01°16' E 103°57'0 0.0
2015-Jan-05 18:28N 01°16' E 103°57'0 0.0
2015-Jan-05 17:28N 01°16' E 103°57'0 0.0
2015-Jan-05 16:28N 01°16' E 103°57'0 0.0
2015-Jan-05 14:04N 01°16' E 103°57'0 0.2
2015-Jan-05 12:10N 01°16' E 103°57'0 0.1
2015-Jan-05 11:28N 01°16' E 103°57'0 0.0
2015-Jan-05 09:31N 01°16' E 103°57'0 0.0
2015-Jan-05 08:28N 01°16' E 103°57'0 0.1
2015-Jan-05 07:22N 01°16' E 103°57'1 1.3
2015-Jan-05 06:32N 01°16' E 103°58'3 3.0
2015-Jan-05 05:33N 01°16' E 104°01'5 4.7
2015-Jan-05 04:31N 01°17' E 104°06'5 5.5
2015-Jan-05 03:32N 01°17' E 104°12'  
Track history (hours):
 
Tides and Currents Weather Stations Pressure Air Temp Water Temp Dewpoint Dewpoint Depression Visibility Wind Speed Wind Dir Waves Ship Positions

Iron Queen

Last reported at 2015-Jan-06 07:22 UTC. Time now 2015-Jan-26 22:28 UTC.
Position N 01°54' E 102°22'.
Warning: this ship's position is 20 days out of date.

Length 280 m; draft 17.2 m.

Type: Cargo ship. MMSI: 234112000.

Date/timePositionNaut miles runAvg speedWind from/ knotsBaromVisibWave heightAir tempDewpointWater temp
2015-Jan-06 07:22N 01°54' E 102°22'1410.7
2015-Jan-06 06:04N 01°48' E 102°34'610.3
2015-Jan-06 05:29N 01°45' E 102°40'76 9.3
2015-Jan-05 21:18N 01°11' E 103°48'911.8
2015-Jan-05 20:33N 01°14' E 103°56'2 1.6
2015-Jan-05 19:13N 01°16' E 103°57'0 0.0
2015-Jan-05 18:28N 01°16' E 103°57'0 0.0
2015-Jan-05 17:28N 01°16' E 103°57'0 0.0
2015-Jan-05 16:28N 01°16' E 103°57'0 0.0
2015-Jan-05 14:04N 01°16' E 103°57'0 0.2
2015-Jan-05 12:10N 01°16' E 103°57'0 0.1
2015-Jan-05 11:28N 01°16' E 103°57'0 0.0
2015-Jan-05 09:31N 01°16' E 103°57'0 0.0
2015-Jan-05 08:28N 01°16' E 103°57'0 0.1
2015-Jan-05 07:22N 01°16' E 103°57'1 1.3
2015-Jan-05 06:32N 01°16' E 103°58'3 3.0
2015-Jan-05 05:33N 01°16' E 104°01'5 4.7
2015-Jan-05 04:31N 01°17' E 104°06'5 5.5
2015-Jan-05 03:32N 01°17' E 104°12'  

Dump ship's entire track history